createdAt,value
2023-05-02T00:00:32.991Z,5.43
2023-05-02T00:05:40.782Z,5.17
2023-05-02T00:10:48.888Z,7.13
2023-05-02T00:15:57.685Z,8.10
2023-05-02T00:21:02.640Z,8.57
2023-05-02T00:26:06.487Z,7.27
2023-05-02T00:31:08.549Z,7.07
2023-05-02T00:36:16.867Z,6.97
2023-05-02T00:41:19.655Z,7.53
2023-05-02T00:46:21.335Z,4.60
2023-05-02T00:51:25.018Z,4.40
2023-05-02T00:56:27.545Z,4.90
2023-05-02T01:01:49.613Z,5.07
2023-05-02T01:07:07.806Z,5.73
2023-05-02T01:12:19.484Z,4.43
2023-05-02T01:17:23.259Z,4.20
2023-05-02T01:22:29.643Z,4.33
2023-05-02T01:27:41.562Z,4.90
2023-05-02T01:32:48.507Z,7.27
2023-05-02T01:37:51.101Z,6.17
2023-05-02T01:42:54.981Z,7.23
2023-05-02T01:47:59.871Z,5.43
2023-05-02T01:53:05.053Z,9.47
2023-05-02T01:58:08.218Z,5.57
2023-05-02T02:03:13.185Z,5.77
2023-05-02T02:08:15.438Z,5.60
2023-05-02T02:13:21.242Z,6.10
2023-05-02T02:18:26.830Z,4.90
2023-05-02T02:23:31.382Z,5.27
2023-05-02T02:28:35.372Z,4.97
2023-05-02T02:33:39.509Z,5.13
2023-05-02T02:38:48.357Z,5.23
2023-05-02T02:44:02.659Z,5.10
2023-05-02T02:49:19.689Z,4.77
2023-05-02T02:54:33.021Z,7.57
2023-05-02T02:59:37.055Z,5.57
2023-05-02T03:04:42.801Z,7.90
2023-05-02T03:09:45.773Z,8.50
2023-05-02T03:14:48.058Z,8.67
2023-05-02T03:19:51.351Z,6.83
2023-05-02T03:24:53.539Z,7.90
2023-05-02T03:29:55.541Z,7.23
2023-05-02T03:34:59.589Z,8.80
2023-05-02T03:40:02.005Z,9.77
2023-05-02T03:45:04.131Z,10.70
2023-05-02T03:50:09.274Z,6.70
2023-05-02T03:55:12.028Z,8.20
2023-05-02T04:00:14.384Z,8.77
2023-05-02T04:05:18.216Z,9.80
2023-05-02T04:10:20.246Z,8.67
2023-05-02T04:15:22.037Z,7.63
2023-05-02T04:20:25.668Z,8.40
2023-05-02T04:25:27.619Z,9.73
2023-05-02T04:30:30.185Z,9.43
2023-05-02T04:35:33.986Z,11.63
2023-05-02T04:40:36.446Z,10.93
2023-05-02T04:45:38.922Z,10.40
2023-05-02T04:50:42.163Z,11.77
2023-05-02T04:55:44.620Z,9.10
2023-05-02T05:00:47.012Z,9.80
2023-05-02T05:05:50.647Z,9.47
2023-05-02T05:10:52.898Z,10.83
2023-05-02T05:15:54.953Z,10.13
2023-05-02T05:20:58.454Z,9.53
2023-05-02T05:26:09.724Z,12.87
2023-05-02T05:31:15.242Z,9.80
2023-05-02T05:36:22.120Z,9.30
2023-05-02T05:41:26.016Z,10.47
2023-05-02T05:46:28.369Z,8.87
2023-05-02T05:51:31.827Z,16.10
2023-05-02T05:56:33.880Z,9.10
2023-05-02T06:01:36.040Z,9.47
2023-05-02T06:06:39.643Z,9.67
2023-05-02T06:11:45.836Z,10.20
2023-05-02T06:16:47.847Z,10.23
2023-05-02T06:21:51.577Z,11.57
2023-05-02T06:26:53.642Z,10.73
2023-05-02T06:31:57.479Z,8.13
2023-05-02T06:37:00.862Z,8.43
2023-05-02T06:42:03.009Z,11.00
2023-05-02T06:47:06.538Z,6.83
2023-05-02T06:52:10.492Z,6.60
2023-05-02T06:57:12.626Z,9.47
2023-05-02T07:02:14.927Z,7.77
2023-05-02T07:07:20.899Z,7.57
2023-05-02T07:12:23.050Z,9.43
2023-05-02T07:17:25.976Z,7.17
2023-05-02T07:22:29.426Z,7.83
2023-05-02T07:27:31.546Z,7.80
2023-05-02T07:32:34.035Z,5.73
2023-05-02T07:37:37.712Z,5.40
2023-05-02T07:42:41.341Z,6.37
2023-05-02T07:47:43.677Z,5.53
2023-05-02T07:52:47.383Z,5.70
2023-05-02T07:57:49.405Z,7.30
2023-05-02T08:02:51.706Z,7.07
2023-05-02T08:07:55.286Z,4.80
2023-05-02T08:12:57.338Z,4.13
2023-05-02T08:18:00.095Z,4.30
2023-05-02T08:23:03.796Z,4.97
2023-05-02T08:28:06.049Z,5.03
2023-05-02T08:33:08.158Z,7.20
2023-05-02T08:38:11.842Z,5.87
2023-05-02T08:43:14.914Z,5.37
2023-05-02T08:48:19.589Z,6.83
2023-05-02T08:53:25.543Z,5.53
2023-05-02T08:58:27.808Z,5.57
2023-05-02T09:03:32.662Z,4.97
2023-05-02T09:08:37.019Z,6.27
2023-05-02T09:13:40.564Z,9.70
2023-05-02T09:18:44.935Z,5.97
2023-05-02T09:23:51.263Z,8.03
2023-05-02T09:28:54.491Z,7.50
2023-05-02T09:33:57.120Z,6.47
2023-05-02T09:39:11.947Z,7.97
2023-05-02T09:44:15.086Z,6.53
2023-05-02T09:49:20.306Z,6.00
2023-05-02T09:54:38.733Z,5.90
2023-05-02T09:59:41.643Z,9.40
2023-05-02T10:04:44.435Z,6.97
2023-05-02T10:09:50.111Z,5.67
2023-05-02T10:15:01.732Z,4.53
2023-05-02T10:20:06.972Z,7.10
2023-05-02T10:25:12.238Z,6.83
2023-05-02T10:30:15.775Z,5.57
2023-05-02T10:35:18.791Z,8.77
2023-05-02T10:40:22.679Z,6.03
2023-05-02T10:45:35.246Z,8.33
2023-05-02T10:50:45.157Z,6.47
2023-05-02T10:56:09.690Z,5.83
2023-05-02T11:01:48.090Z,5.77
2023-05-02T11:07:20.407Z,6.97
2023-05-02T11:12:46.852Z,5.80
2023-05-02T11:18:02.452Z,5.63
2023-05-02T11:23:26.258Z,7.25
2023-05-02T11:28:46.059Z,7.68
2023-05-02T11:33:57.868Z,7.72
2023-05-02T11:39:00.098Z,6.22
2023-05-02T11:44:07.488Z,4.50
2023-05-02T11:49:10.995Z,7.53
2023-05-02T11:54:21.564Z,5.50
2023-05-02T11:59:25.090Z,6.80
2023-05-02T12:04:28.381Z,5.28
2023-05-02T12:09:30.846Z,5.40
2023-05-02T12:14:35.836Z,6.45
2023-05-02T12:19:38.426Z,5.03
2023-05-02T12:24:41.570Z,4.88
2023-05-02T12:29:46.936Z,5.05
2023-05-02T12:34:49.386Z,6.00
2023-05-02T12:39:52.852Z,6.82
2023-05-02T12:44:57.215Z,5.65
2023-05-02T12:50:00.630Z,5.75
2023-05-02T12:55:17.220Z,7.18
2023-05-02T13:00:21.179Z,6.90
2023-05-02T13:05:23.218Z,5.55
2023-05-02T13:10:26.351Z,5.47
2023-05-02T13:15:30.256Z,4.65
2023-05-02T13:20:32.560Z,6.65
2023-05-02T13:25:34.772Z,6.50
2023-05-02T13:30:39.067Z,5.97
2023-05-02T13:35:41.498Z,4.32
2023-05-02T13:40:43.794Z,5.45
2023-05-02T13:45:49.150Z,4.88
2023-05-02T13:50:51.640Z,5.15
2023-05-02T13:55:53.775Z,5.15
2023-05-02T14:00:57.346Z,4.55
2023-05-02T14:05:59.557Z,4.87
2023-05-02T14:11:01.940Z,4.27
2023-05-02T14:16:06.491Z,2.78
2023-05-02T14:21:08.728Z,4.82
2023-05-02T14:26:10.937Z,1.42
2023-05-02T14:31:14.865Z,2.13
2023-05-02T14:36:17.290Z,3.28
2023-05-02T14:41:41.564Z,4.57
2023-05-02T14:46:54.427Z,2.17
2023-05-02T14:51:58.276Z,3.35
2023-05-02T14:57:02.322Z,3.22
2023-05-02T15:02:05.995Z,2.20
2023-05-02T15:07:08.319Z,2.92
2023-05-02T15:12:10.580Z,3.85
2023-05-02T15:17:13.928Z,2.50
2023-05-02T15:22:18.443Z,2.90
2023-05-02T15:27:20.335Z,2.90
2023-05-02T15:32:23.974Z,4.03
2023-05-02T15:37:26.322Z,2.13
2023-05-02T15:42:28.544Z,2.60
2023-05-02T15:47:32.350Z,1.73
2023-05-02T15:52:35.267Z,1.87
2023-05-02T15:57:37.744Z,6.23
2023-05-02T16:02:41.209Z,2.80
2023-05-02T16:07:43.600Z,2.63
2023-05-02T16:12:46.021Z,5.00
2023-05-02T16:17:49.978Z,3.97
2023-05-02T16:22:52.476Z,3.53
2023-05-02T16:27:54.825Z,1.88
2023-05-02T16:32:58.571Z,2.20
2023-05-02T16:38:01.301Z,4.13
2023-05-02T16:43:03.597Z,3.83
2023-05-02T16:48:07.827Z,4.25
2023-05-02T16:53:10.132Z,2.50
2023-05-02T16:58:12.346Z,4.72
2023-05-02T17:03:15.577Z,2.42
2023-05-02T17:08:18.132Z,1.95
2023-05-02T17:13:20.522Z,4.68
2023-05-02T17:18:24.459Z,4.33
2023-05-02T17:23:26.351Z,3.80
2023-05-02T17:28:28.641Z,3.77
2023-05-02T17:33:32.294Z,3.90
2023-05-02T17:38:34.083Z,3.47
2023-05-02T17:49:43.357Z,6.77
2023-05-02T17:54:45.310Z,4.23
2023-05-02T17:59:47.437Z,7.50
2023-05-02T18:04:54.301Z,5.53
2023-05-02T18:09:56.758Z,4.97
2023-05-02T18:14:59.140Z,7.50
2023-05-02T18:20:04.870Z,4.20
2023-05-02T18:25:08.767Z,4.23
2023-05-02T18:36:22.011Z,4.97
2023-05-02T18:41:30.538Z,5.27
2023-05-02T18:46:33.787Z,4.03
2023-05-02T18:51:38.272Z,5.53
2023-05-02T18:56:40.686Z,5.50
2023-05-02T19:01:43.544Z,5.83
2023-05-02T19:06:48.859Z,7.97
2023-05-02T19:11:51.984Z,5.20
2023-05-02T19:16:55.504Z,5.43
2023-05-02T19:22:03.874Z,5.60
2023-05-02T19:27:10.621Z,5.43
2023-05-02T19:32:13.503Z,5.13
2023-05-02T19:37:21.017Z,8.63
2023-05-02T19:42:23.834Z,7.47
2023-05-02T19:47:31.228Z,6.00
2023-05-02T19:52:35.203Z,5.70
2023-05-02T19:57:40.953Z,5.17
2023-05-02T20:02:45.239Z,4.80
2023-05-02T20:07:49.650Z,5.10
2023-05-02T20:12:52.407Z,7.67
2023-05-02T20:18:02.321Z,7.53
2023-05-02T20:23:07.954Z,5.90
2023-05-02T20:28:13.193Z,5.53
2023-05-02T20:39:38.676Z,8.80
2023-05-02T20:44:42.245Z,4.50
2023-05-02T20:49:44.457Z,5.43
2023-05-02T20:54:48.885Z,7.80
2023-05-02T20:59:52.480Z,7.30
2023-05-02T21:04:55.345Z,4.73
2023-05-02T21:09:59.367Z,4.40
2023-05-02T21:15:01.497Z,5.20
2023-05-02T21:20:04.551Z,5.20
2023-05-02T21:25:08.937Z,4.37
2023-05-02T21:30:12.413Z,5.17
2023-05-02T21:35:14.559Z,3.53
2023-05-02T21:40:18.080Z,6.47
2023-05-02T21:45:20.125Z,5.10
2023-05-02T21:50:22.473Z,4.40
2023-05-02T21:55:26.883Z,6.80
2023-05-02T22:00:29.142Z,6.10
2023-05-02T22:05:31.429Z,4.80
2023-05-02T22:10:38.131Z,6.07
2023-05-02T22:15:45.775Z,5.00
2023-05-02T22:20:48.512Z,5.17
2023-05-02T22:25:52.026Z,5.57
2023-05-02T22:30:55.028Z,5.87
2023-05-02T22:35:58.206Z,5.57
2023-05-02T22:41:01.975Z,6.80
2023-05-02T22:46:04.557Z,10.13
2023-05-02T22:51:06.648Z,6.13
2023-05-02T22:56:10.212Z,6.90
2023-05-02T23:01:12.603Z,7.20
2023-05-02T23:06:14.623Z,11.10
2023-05-02T23:11:18.494Z,6.43
2023-05-02T23:16:20.526Z,6.27
2023-05-02T23:21:22.831Z,6.50
2023-05-02T23:26:26.612Z,6.43
2023-05-02T23:31:28.817Z,6.77
2023-05-02T23:36:32.445Z,8.30
2023-05-02T23:41:36.017Z,5.47
2023-05-02T23:46:38.296Z,7.63
2023-05-02T23:51:40.399Z,7.63
2023-05-02T23:56:44.138Z,8.53
